createdAt,value
2023-04-27T00:02:20.743Z,99937.00
2023-04-27T00:04:48.339Z,99940.72
2023-04-27T00:07:15.864Z,99943.44
2023-04-27T00:09:43.030Z,99919.88
2023-04-27T00:12:10.263Z,99951.44
2023-04-27T00:14:38.070Z,99939.00
2023-04-27T00:17:05.278Z,99927.88
2023-04-27T00:19:32.513Z,99924.84
2023-04-27T00:22:00.594Z,99947.63
2023-04-27T00:24:27.980Z,99928.63
2023-04-27T00:26:55.128Z,99925.69
2023-04-27T00:29:22.390Z,99938.34
2023-04-27T00:31:49.540Z,99906.97
2023-04-27T00:34:16.729Z,99914.97
2023-04-27T00:36:44.038Z,99921.91
2023-04-27T00:39:13.298Z,99931.53
2023-04-27T00:41:40.797Z,99919.69
2023-04-27T00:44:08.147Z,99920.25
2023-04-27T00:46:37.101Z,99935.00
2023-04-27T00:49:04.766Z,99943.09
2023-04-27T00:51:32.384Z,99928.28
2023-04-27T00:54:01.091Z,99936.56
2023-04-27T00:56:28.328Z,99923.00
2023-04-27T00:58:55.803Z,99945.47
2023-04-27T01:01:23.935Z,99976.84
2023-04-27T01:03:51.845Z,99973.34
2023-04-27T01:06:19.203Z,99969.28
2023-04-27T01:08:47.049Z,99960.13
2023-04-27T01:11:14.459Z,99974.97
2023-04-27T01:13:41.800Z,99953.78
2023-04-27T01:16:09.171Z,99969.50
2023-04-27T01:18:40.845Z,99968.97
2023-04-27T01:21:08.265Z,99948.47
2023-04-27T01:23:36.108Z,99949.56
2023-04-27T01:26:04.654Z,99956.22
2023-04-27T01:28:31.918Z,99954.38
2023-04-27T01:31:01.306Z,99930.72
2023-04-27T01:33:28.506Z,99928.81
2023-04-27T01:35:56.029Z,99931.03
2023-04-27T01:38:24.259Z,99946.69
2023-04-27T01:40:51.725Z,99943.88
2023-04-27T01:43:22.028Z,99935.22
2023-04-27T01:45:49.143Z,99949.03
2023-04-27T01:48:16.730Z,99940.00
2023-04-27T01:50:44.596Z,99953.16
2023-04-27T01:53:11.696Z,99956.56
2023-04-27T01:55:38.972Z,99942.25
2023-04-27T01:58:06.241Z,99942.00
2023-04-27T02:00:33.826Z,99936.34
2023-04-27T02:03:01.412Z,99928.88
2023-04-27T02:05:29.044Z,99944.91
2023-04-27T02:07:56.291Z,99940.78
2023-04-27T02:10:23.880Z,99962.13
2023-04-27T02:12:57.338Z,99958.56
2023-04-27T02:15:24.821Z,99950.72
2023-04-27T02:17:52.095Z,99960.28
2023-04-27T02:20:19.531Z,99969.94
2023-04-27T02:22:46.816Z,99984.84
2023-04-27T02:25:14.004Z,99972.13
2023-04-27T02:27:43.635Z,99987.53
2023-04-27T02:30:12.745Z,100001.91
2023-04-27T02:32:41.618Z,99973.13
2023-04-27T02:35:09.967Z,99973.97
2023-04-27T02:37:37.947Z,99969.09
2023-04-27T02:40:08.073Z,99955.44
2023-04-27T02:42:39.167Z,99926.94
2023-04-27T02:45:08.560Z,99947.69
2023-04-27T02:47:37.512Z,99949.66
2023-04-27T02:50:05.127Z,99942.16
2023-04-27T02:52:34.812Z,99958.44
2023-04-27T02:55:01.963Z,99949.34
2023-04-27T02:57:32.863Z,99933.84
2023-04-27T03:00:00.202Z,99957.91
2023-04-27T03:02:27.624Z,99944.53
2023-04-27T03:04:55.399Z,99950.84
2023-04-27T03:07:23.129Z,99948.38
2023-04-27T03:09:50.259Z,99969.16
2023-04-27T03:12:17.453Z,99963.41
2023-04-27T03:14:44.802Z,99964.22
2023-04-27T03:17:12.030Z,99943.09
2023-04-27T03:19:40.549Z,99941.38
2023-04-27T03:22:07.713Z,99913.22
2023-04-27T03:24:35.802Z,99909.13
2023-04-27T03:27:02.962Z,99899.47
2023-04-27T03:29:30.556Z,99897.13
2023-04-27T03:31:57.857Z,99921.75
2023-04-27T03:34:24.980Z,99914.59
2023-04-27T03:36:52.124Z,99912.75
2023-04-27T03:39:19.370Z,99893.41
2023-04-27T03:41:46.624Z,99920.97
2023-04-27T03:44:13.969Z,99920.59
2023-04-27T03:46:42.106Z,99891.09
2023-04-27T03:49:09.305Z,99918.50
2023-04-27T03:51:38.453Z,99934.69
2023-04-27T03:54:05.832Z,99964.50
2023-04-27T03:56:33.131Z,99971.03
2023-04-27T03:59:01.099Z,99973.16
2023-04-27T04:01:34.853Z,99961.16
2023-04-27T04:04:02.512Z,99951.41
2023-04-27T04:06:32.091Z,99949.41
2023-04-27T04:08:59.224Z,99956.47
2023-04-27T04:11:27.539Z,99972.50
2023-04-27T04:13:57.645Z,99968.03
2023-04-27T04:16:24.889Z,99973.78
2023-04-27T04:18:53.653Z,100001.78
2023-04-27T04:21:21.772Z,99995.69
2023-04-27T04:23:48.914Z,99987.56
2023-04-27T04:26:16.817Z,99999.38
2023-04-27T04:28:44.667Z,99981.28
2023-04-27T04:31:11.791Z,99974.75
2023-04-27T04:33:39.820Z,99968.72
2023-04-27T04:36:07.916Z,99990.78
2023-04-27T04:38:35.179Z,99998.72
2023-04-27T04:41:02.523Z,100005.75
2023-04-27T04:43:32.947Z,100004.75
2023-04-27T04:46:04.426Z,99992.56
2023-04-27T04:48:32.547Z,99985.28
2023-04-27T04:50:59.680Z,99969.44
2023-04-27T04:53:27.111Z,99990.47
2023-04-27T04:55:56.714Z,99989.56
2023-04-27T04:58:23.990Z,99968.44
2023-04-27T05:00:51.217Z,99956.03
2023-04-27T05:03:18.916Z,99970.34
2023-04-27T05:05:47.991Z,99968.81
2023-04-27T05:08:16.599Z,99963.44
2023-04-27T05:10:49.901Z,99961.91
2023-04-27T05:13:17.557Z,99949.78
2023-04-27T05:15:44.700Z,99962.44
2023-04-27T05:18:12.012Z,99949.97
2023-04-27T05:20:39.469Z,99958.28
2023-04-27T05:23:06.703Z,99960.91
2023-04-27T05:25:37.787Z,99970.19
2023-04-27T05:28:05.128Z,99973.22
2023-04-27T05:30:32.402Z,99958.75
2023-04-27T05:32:59.747Z,99958.84
2023-04-27T05:35:26.906Z,99948.72
2023-04-27T05:37:54.115Z,99976.03
2023-04-27T05:40:21.805Z,99962.19
2023-04-27T05:42:49.858Z,99971.56
2023-04-27T05:45:17.055Z,99943.84
2023-04-27T05:47:44.303Z,99972.34
2023-04-27T05:50:11.962Z,99954.56
2023-04-27T05:52:53.128Z,99923.81
2023-04-27T05:55:20.292Z,99941.63
2023-04-27T05:57:54.507Z,99943.78
2023-04-27T06:00:32.369Z,99949.94
2023-04-27T06:02:59.576Z,99913.50
2023-04-27T06:05:26.942Z,99932.31
2023-04-27T06:07:54.237Z,99929.66
2023-04-27T06:10:21.460Z,99950.28
2023-04-27T06:12:48.522Z,99934.41
2023-04-27T06:15:16.019Z,99947.44
2023-04-27T06:17:46.090Z,99955.16
2023-04-27T06:20:13.512Z,99939.09
2023-04-27T06:22:40.672Z,99935.72
2023-04-27T06:25:08.392Z,99949.75
2023-04-27T06:27:35.672Z,99939.25
2023-04-27T06:30:03.148Z,99934.94
2023-04-27T06:32:32.951Z,99955.94
2023-04-27T06:35:00.153Z,99951.56
2023-04-27T06:37:27.418Z,99929.38
2023-04-27T06:39:54.809Z,99936.44
2023-04-27T06:42:22.068Z,99914.72
2023-04-27T06:44:52.315Z,99909.19
2023-04-27T06:47:19.575Z,99925.03
2023-04-27T06:49:48.525Z,99922.78
2023-04-27T06:52:17.658Z,99937.44
2023-04-27T06:54:46.516Z,99940.31
2023-04-27T06:57:13.810Z,99904.16
2023-04-27T06:59:41.010Z,99930.03
2023-04-27T07:10:17.255Z,99920.97
2023-04-27T07:12:45.721Z,99941.72
2023-04-27T07:15:13.505Z,99920.72
2023-04-27T07:17:40.671Z,99925.44
2023-04-27T07:20:08.854Z,99927.09
2023-04-27T07:22:36.623Z,99912.53
2023-04-27T07:25:05.532Z,99928.25
2023-04-27T07:27:33.307Z,99917.66
2023-04-27T07:30:00.443Z,99922.75
2023-04-27T07:32:29.260Z,99915.44
2023-04-27T07:34:57.146Z,99922.47
2023-04-27T07:37:24.383Z,99914.72
2023-04-27T07:39:54.888Z,99929.81
2023-04-27T07:42:25.445Z,99910.81
2023-04-27T07:44:52.772Z,99917.44
2023-04-27T07:47:20.129Z,99918.66
2023-04-27T07:49:47.544Z,99923.63
2023-04-27T07:52:14.865Z,99932.31
2023-04-27T07:54:42.058Z,99905.03
2023-04-27T07:57:11.664Z,99920.56
2023-04-27T07:59:39.417Z,99925.19
2023-04-27T08:02:17.759Z,99927.22
2023-04-27T08:04:49.554Z,99910.09
2023-04-27T08:07:17.822Z,99917.94
2023-04-27T08:09:45.209Z,99888.94
2023-04-27T08:12:12.645Z,99913.53
2023-04-27T08:14:39.947Z,99917.94
2023-04-27T08:17:07.223Z,99911.94
2023-04-27T08:19:34.776Z,99913.97
2023-04-27T08:22:02.851Z,99908.72
2023-04-27T08:24:30.103Z,99928.00
2023-04-27T08:26:57.688Z,99916.28
2023-04-27T08:29:28.855Z,99924.88
2023-04-27T08:32:00.691Z,99916.47
2023-04-27T08:34:29.028Z,99926.78
2023-04-27T08:36:57.222Z,99916.28
2023-04-27T08:39:25.801Z,99927.25
2023-04-27T08:41:53.514Z,99907.84
2023-04-27T08:44:20.822Z,99902.66
2023-04-27T08:46:48.463Z,99897.50
2023-04-27T08:49:17.077Z,99894.31
2023-04-27T08:51:44.844Z,99900.88
2023-04-27T08:54:13.168Z,99883.13
2023-04-27T08:56:41.915Z,99894.53
2023-04-27T08:59:15.778Z,99897.56
2023-04-27T09:01:49.152Z,99889.53
2023-04-27T09:04:18.289Z,99879.78
2023-04-27T09:06:46.361Z,99889.63
2023-04-27T09:09:23.876Z,99878.25
2023-04-27T09:11:51.650Z,99862.84
2023-04-27T09:14:21.928Z,99886.47
2023-04-27T09:16:57.900Z,99846.56
2023-04-27T09:19:29.926Z,99879.16
2023-04-27T09:22:11.388Z,99887.75
2023-04-27T09:24:39.312Z,99888.97
2023-04-27T09:27:08.774Z,99881.66
2023-04-27T09:29:37.835Z,99866.19
2023-04-27T09:32:19.245Z,99875.19
2023-04-27T09:34:47.053Z,99868.28
2023-04-27T09:37:14.683Z,99868.69
2023-04-27T09:39:42.926Z,99875.56
2023-04-27T09:42:12.652Z,99877.22
2023-04-27T09:44:39.828Z,99871.91
2023-04-27T09:47:07.842Z,99868.25
2023-04-27T09:49:36.408Z,99877.59
2023-04-27T09:52:04.505Z,99871.53
2023-04-27T09:54:34.745Z,99873.97
2023-04-27T09:57:13.567Z,99875.22
2023-04-27T10:00:11.224Z,99869.09
2023-04-27T10:02:53.657Z,99862.97
2023-04-27T10:05:37.910Z,99868.63
2023-04-27T10:08:06.833Z,99861.31
2023-04-27T10:10:44.411Z,99857.22
2023-04-27T10:13:24.056Z,99865.31
2023-04-27T10:15:52.690Z,99861.28
2023-04-27T10:18:33.428Z,99870.22
2023-04-27T10:21:10.953Z,99858.81
2023-04-27T10:23:51.254Z,99859.59
2023-04-27T10:26:27.015Z,99851.03
2023-04-27T10:29:07.496Z,99856.72
2023-04-27T10:31:35.971Z,99858.75
2023-04-27T10:34:11.088Z,99848.94
2023-04-27T10:36:41.326Z,99861.19
2023-04-27T10:39:36.186Z,99864.78
2023-04-27T10:42:13.343Z,99861.50
2023-04-27T10:44:40.469Z,99849.69
2023-04-27T10:47:20.025Z,99859.47
2023-04-27T10:49:47.281Z,99847.63
2023-04-27T10:52:14.861Z,99852.91
2023-04-27T10:54:47.330Z,99857.00
2023-04-27T10:57:14.649Z,99845.19
2023-04-27T10:59:53.699Z,99855.78
2023-04-27T11:02:29.022Z,99841.44
2023-04-27T11:04:56.801Z,99833.72
2023-04-27T11:07:28.559Z,99848.34
2023-04-27T11:09:56.140Z,99842.22
2023-04-27T11:12:24.262Z,99839.78
2023-04-27T11:14:57.987Z,99845.91
2023-04-27T11:17:30.185Z,99851.31
2023-04-27T11:19:57.304Z,99852.53
2023-04-27T11:22:24.650Z,99842.41
2023-04-27T11:24:53.630Z,99853.84
2023-04-27T11:27:23.556Z,99852.22
2023-04-27T11:29:51.472Z,99848.59
2023-04-27T11:32:23.116Z,99860.41
2023-04-27T11:34:53.666Z,99857.56
2023-04-27T11:37:24.975Z,99853.47
2023-04-27T11:39:54.270Z,99844.13
2023-04-27T11:42:24.489Z,99854.28
2023-04-27T11:44:53.744Z,99858.34
2023-04-27T11:47:22.775Z,99848.97
2023-04-27T11:49:52.277Z,99846.50
2023-04-27T11:52:19.489Z,99846.44
2023-04-27T11:54:48.732Z,99841.53
2023-04-27T11:57:16.588Z,99829.72
2023-04-27T11:59:43.972Z,99842.34
2023-04-27T12:02:11.334Z,99841.53
2023-04-27T12:04:38.832Z,99834.59
2023-04-27T12:07:06.263Z,99849.63
2023-04-27T12:09:34.619Z,99847.13
2023-04-27T12:12:02.707Z,99837.34
2023-04-27T12:14:30.077Z,99832.50
2023-04-27T12:16:57.332Z,99812.97
2023-04-27T12:19:26.114Z,99829.22
2023-04-27T12:21:54.173Z,99838.97
2023-04-27T12:24:21.932Z,99829.97
2023-04-27T12:26:49.610Z,99834.47
2023-04-27T12:29:16.902Z,99833.22
2023-04-27T12:31:44.762Z,99819.84
2023-04-27T12:34:13.114Z,99823.53
2023-04-27T12:36:41.438Z,99823.13
2023-04-27T12:39:16.037Z,99834.91
2023-04-27T12:41:48.405Z,99833.28
2023-04-27T12:44:17.011Z,99832.50
2023-04-27T12:46:45.011Z,99817.84
2023-04-27T12:49:15.182Z,99834.06
2023-04-27T12:51:42.622Z,99813.75
2023-04-27T12:54:11.433Z,99830.81
2023-04-27T12:56:38.841Z,99808.06
2023-04-27T12:59:08.816Z,99831.63
2023-04-27T13:01:36.342Z,99835.69
2023-04-27T13:04:06.240Z,99841.38
2023-04-27T13:06:33.594Z,99825.94
2023-04-27T13:09:01.214Z,99830.00
2023-04-27T13:11:28.930Z,99832.44
2023-04-27T13:13:56.076Z,99837.72
2023-04-27T13:16:25.680Z,99824.31
2023-04-27T13:18:55.613Z,99827.63
2023-04-27T13:21:23.508Z,99833.69
2023-04-27T13:23:51.855Z,99823.94
2023-04-27T13:26:19.183Z,99826.00
2023-04-27T13:28:46.325Z,99838.56
2023-04-27T13:31:13.668Z,99829.66
2023-04-27T13:33:43.408Z,99822.34
2023-04-27T13:36:11.505Z,99832.09
2023-04-27T13:38:39.413Z,99823.56
2023-04-27T13:41:07.041Z,99826.03
2023-04-27T13:43:34.580Z,99826.03
2023-04-27T13:46:03.074Z,99839.16
2023-04-27T13:48:31.325Z,99823.69
2023-04-27T13:50:58.979Z,99839.59
2023-04-27T13:53:26.749Z,99826.19
2023-04-27T13:55:55.213Z,99839.63
2023-04-27T13:58:25.090Z,99833.53
2023-04-27T14:00:53.600Z,99838.44
2023-04-27T14:03:21.738Z,99840.88
2023-04-27T14:05:51.153Z,99827.84
2023-04-27T14:08:18.736Z,99840.06
2023-04-27T14:10:46.746Z,99844.94
2023-04-27T14:13:14.512Z,99838.00
2023-04-27T14:15:42.243Z,99842.50
2023-04-27T14:18:09.913Z,99838.44
2023-04-27T14:20:39.100Z,99842.50
2023-04-27T14:23:07.148Z,99846.56
2023-04-27T14:25:35.255Z,99846.56
2023-04-27T14:28:04.803Z,99839.63
2023-04-27T14:30:35.687Z,99832.72
2023-04-27T14:33:03.410Z,99838.81
2023-04-27T14:35:30.953Z,99835.63
2023-04-27T14:38:02.356Z,99834.38
2023-04-27T14:40:33.168Z,99844.19
2023-04-27T14:43:00.574Z,99841.34
2023-04-27T14:45:36.596Z,99842.56
2023-04-27T14:48:07.631Z,99850.31
2023-04-27T14:50:35.141Z,99856.00
2023-04-27T14:53:02.395Z,99856.88
2023-04-27T14:55:29.702Z,99845.06
2023-04-27T14:57:56.906Z,99862.97
2023-04-27T15:00:24.448Z,99850.34
2023-04-27T15:02:51.850Z,99851.16
2023-04-27T15:05:19.023Z,99866.66
2023-04-27T15:07:46.407Z,99872.34
2023-04-27T15:10:13.605Z,99856.91
2023-04-27T15:12:40.863Z,99875.22
2023-04-27T15:15:10.523Z,99864.19
2023-04-27T15:17:38.007Z,99864.19
2023-04-27T15:20:06.297Z,99877.22
2023-04-27T15:22:33.795Z,99869.09
2023-04-27T15:25:00.869Z,99851.16
2023-04-27T15:27:28.078Z,99860.09
2023-04-27T15:29:55.844Z,99854.03
2023-04-27T15:32:24.904Z,99850.78
2023-04-27T15:34:52.335Z,99849.94
2023-04-27T15:37:19.598Z,99855.63
2023-04-27T15:39:46.732Z,99847.88
2023-04-27T15:42:13.917Z,99844.22
2023-04-27T15:44:41.089Z,99845.81
2023-04-27T15:47:08.472Z,99856.00
2023-04-27T15:49:45.899Z,99846.97
2023-04-27T15:52:21.672Z,99854.28
2023-04-27T15:54:48.917Z,99842.47
2023-04-27T15:57:16.316Z,99840.81
2023-04-27T15:59:43.552Z,99852.22
2023-04-27T16:02:10.945Z,99849.81
2023-04-27T16:04:38.363Z,99842.88
2023-04-27T16:07:08.911Z,99871.72
2023-04-27T16:09:36.456Z,99848.94
2023-04-27T16:12:04.002Z,99861.13
2023-04-27T16:14:31.419Z,99854.59
2023-04-27T16:17:02.568Z,99852.97
2023-04-27T16:19:29.928Z,99846.84
2023-04-27T16:21:57.789Z,99863.50
2023-04-27T16:24:27.162Z,99859.38
2023-04-27T16:26:54.404Z,99861.81
2023-04-27T16:29:21.516Z,99866.66
2023-04-27T16:31:53.315Z,99874.81
2023-04-27T16:34:20.704Z,99870.59
2023-04-27T16:36:48.725Z,99880.72
2023-04-27T16:39:16.461Z,99870.91
2023-04-27T16:41:43.853Z,99872.91
2023-04-27T16:44:12.895Z,99877.75
2023-04-27T16:46:40.444Z,99884.22
2023-04-27T16:49:08.390Z,99875.69
2023-04-27T16:51:36.411Z,99880.13
2023-04-27T16:54:04.081Z,99885.00
2023-04-27T16:56:35.393Z,99881.25
2023-04-27T16:59:04.469Z,99889.75
2023-04-27T17:01:31.785Z,99886.09
2023-04-27T17:04:02.328Z,99896.22
2023-04-27T17:06:30.121Z,99889.72
2023-04-27T17:08:58.053Z,99890.91
2023-04-27T17:11:25.395Z,99889.75
2023-04-27T17:13:52.689Z,99893.06
2023-04-27T17:16:20.201Z,99903.22
2023-04-27T17:18:47.991Z,99904.84
2023-04-27T17:21:16.799Z,99882.84
2023-04-27T17:23:46.693Z,99887.75
2023-04-27T17:26:16.117Z,99883.69
2023-04-27T17:28:43.610Z,99897.09
2023-04-27T17:31:10.790Z,99895.00
2023-04-27T17:33:39.322Z,99900.56
2023-04-27T17:36:09.786Z,99903.25
2023-04-27T17:38:37.750Z,99893.38
2023-04-27T17:41:05.017Z,99898.19
2023-04-27T17:43:32.245Z,99896.44
2023-04-27T17:45:59.410Z,99887.06
2023-04-27T17:48:26.990Z,99881.31
2023-04-27T17:50:54.798Z,99886.94
2023-04-27T17:53:21.990Z,99889.41
2023-04-27T17:55:49.216Z,99889.81
2023-04-27T17:58:17.213Z,99902.47
2023-04-27T18:00:44.420Z,99881.31
2023-04-27T18:03:15.562Z,99890.25
2023-04-27T18:05:43.203Z,99880.13
2023-04-27T18:08:11.059Z,99898.84
2023-04-27T18:10:38.253Z,99893.19
2023-04-27T18:13:05.384Z,99887.53
2023-04-27T18:15:32.620Z,99889.59
2023-04-27T18:17:59.846Z,99885.88
2023-04-27T18:20:28.057Z,99898.09
2023-04-27T18:22:55.344Z,99894.50
2023-04-27T18:25:23.246Z,99881.88
2023-04-27T18:27:55.258Z,99878.28
2023-04-27T18:30:23.053Z,99890.09
2023-04-27T18:32:51.986Z,99890.09
2023-04-27T18:35:19.178Z,99880.34
2023-04-27T18:37:48.626Z,99902.72
2023-04-27T18:40:20.223Z,99888.94
2023-04-27T18:42:48.282Z,99892.16
2023-04-27T18:45:15.976Z,99890.91
2023-04-27T18:47:43.239Z,99887.25
2023-04-27T18:50:13.811Z,99890.13
2023-04-27T18:52:41.233Z,99872.22
2023-04-27T18:55:09.516Z,99899.13
2023-04-27T18:57:37.209Z,99866.50
2023-04-27T19:00:06.252Z,99893.03
2023-04-27T19:02:34.173Z,99883.25
2023-04-27T19:07:34.766Z,99889.75
2023-04-27T19:10:01.885Z,99886.50
2023-04-27T19:12:30.984Z,99883.25
2023-04-27T19:14:58.144Z,99885.28
2023-04-27T19:17:26.415Z,99888.50
2023-04-27T19:19:53.893Z,99884.47
2023-04-27T19:22:21.212Z,99886.00
2023-04-27T19:24:48.641Z,99876.25
2023-04-27T19:27:16.049Z,99880.22
2023-04-27T19:29:54.618Z,99901.47
2023-04-27T19:32:26.803Z,99897.28
2023-04-27T19:34:58.617Z,99898.84
2023-04-27T19:37:28.724Z,99914.31
2023-04-27T19:39:56.050Z,99913.09
2023-04-27T19:42:25.039Z,99894.72
2023-04-27T19:44:52.248Z,99895.59
2023-04-27T19:47:19.561Z,99898.38
2023-04-27T19:49:48.743Z,99900.47
2023-04-27T19:52:15.994Z,99894.38
2023-04-27T19:54:43.254Z,99889.06
2023-04-27T19:57:10.809Z,99894.72
2023-04-27T19:59:38.112Z,99895.56
2023-04-27T20:02:05.507Z,99877.13
2023-04-27T20:04:33.057Z,99877.50
2023-04-27T20:07:02.168Z,99893.31
2023-04-27T20:09:30.528Z,99889.25
2023-04-27T20:11:57.664Z,99888.75
2023-04-27T20:14:25.290Z,99887.19
2023-04-27T20:16:52.474Z,99882.59
2023-04-27T20:19:20.885Z,99877.41
2023-04-27T20:21:48.567Z,99888.28
2023-04-27T20:24:16.604Z,99885.88
2023-04-27T20:26:44.088Z,99887.31
2023-04-27T20:29:11.681Z,99889.66
2023-04-27T20:31:39.074Z,99880.78
2023-04-27T20:34:06.348Z,99864.78
2023-04-27T20:36:33.901Z,99891.69
2023-04-27T20:39:01.081Z,99896.59
2023-04-27T20:41:28.576Z,99892.44
2023-04-27T20:43:55.773Z,99896.59
2023-04-27T20:46:23.035Z,99897.25
2023-04-27T20:48:50.192Z,99904.66
2023-04-27T20:51:18.058Z,99894.72
2023-04-27T20:53:45.192Z,99909.41
2023-04-27T20:56:12.325Z,99904.47
2023-04-27T20:58:39.556Z,99890.09
2023-04-27T21:01:06.884Z,99875.84
2023-04-27T21:03:34.320Z,99892.16
2023-04-27T21:06:01.560Z,99889.88
2023-04-27T21:08:29.066Z,99884.16
2023-04-27T21:10:57.351Z,99875.31
2023-04-27T21:13:24.866Z,99881.75
2023-04-27T21:15:52.172Z,99865.88
2023-04-27T21:18:29.583Z,99863.81
2023-04-27T21:20:58.220Z,99854.56
2023-04-27T21:23:25.462Z,99854.13
2023-04-27T21:25:52.692Z,99851.59
2023-04-27T21:28:20.603Z,99857.22
2023-04-27T21:30:47.974Z,99838.59
2023-04-27T21:33:15.256Z,99842.66
2023-04-27T21:35:42.487Z,99839.81
2023-04-27T21:38:09.679Z,99833.72
2023-04-27T21:40:37.173Z,99844.31
2023-04-27T21:43:04.314Z,99837.44
2023-04-27T21:45:34.869Z,99837.44
2023-04-27T21:48:02.522Z,99795.78
2023-04-27T21:50:30.023Z,99797.91
2023-04-27T21:52:57.127Z,99822.84
2023-04-27T21:55:24.425Z,99824.91
2023-04-27T21:57:51.507Z,99828.06
2023-04-27T22:00:19.135Z,99825.47
2023-04-27T22:02:48.638Z,99815.69
2023-04-27T22:05:16.543Z,99830.22
2023-04-27T22:07:46.088Z,99833.34
2023-04-27T22:10:13.606Z,99826.59
2023-04-27T22:12:41.194Z,99823.50
2023-04-27T22:15:08.823Z,99830.84
2023-04-27T22:17:36.102Z,99812.31
2023-04-27T22:20:05.170Z,99813.63
2023-04-27T22:22:32.452Z,99798.09
2023-04-27T22:24:59.907Z,99801.69
2023-04-27T22:27:35.363Z,99803.63
2023-04-27T22:30:10.260Z,99799.13
2023-04-27T22:32:37.952Z,99801.63
2023-04-27T22:35:08.762Z,99803.63
2023-04-27T22:37:40.882Z,99798.03
2023-04-27T22:40:08.967Z,99808.09
2023-04-27T22:42:36.040Z,99809.78
2023-04-27T22:45:03.565Z,99810.94
2023-04-27T22:47:33.449Z,99803.16
2023-04-27T22:50:01.450Z,99807.63
2023-04-27T22:52:33.836Z,99806.44
2023-04-27T22:55:03.829Z,99797.25
2023-04-27T22:57:31.639Z,99803.47
2023-04-27T22:59:58.716Z,99789.88
2023-04-27T23:02:26.098Z,99795.06
2023-04-27T23:04:53.258Z,99783.69
2023-04-27T23:07:20.749Z,99777.06
2023-04-27T23:09:48.334Z,99780.00
2023-04-27T23:12:15.911Z,99781.63
2023-04-27T23:14:43.140Z,99773.25
2023-04-27T23:17:10.482Z,99774.59
2023-04-27T23:19:37.869Z,99789.03
2023-04-27T23:22:05.269Z,99790.38
2023-04-27T23:24:32.458Z,99796.84
2023-04-27T23:26:59.789Z,99791.63
2023-04-27T23:29:26.879Z,99788.78
2023-04-27T23:31:54.125Z,99792.22
2023-04-27T23:34:21.391Z,99803.16
2023-04-27T23:36:48.475Z,99805.63
2023-04-27T23:39:15.865Z,99794.75
2023-04-27T23:41:43.057Z,99805.09
2023-04-27T23:44:10.215Z,99779.31
2023-04-27T23:46:37.503Z,99782.06
2023-04-27T23:49:04.655Z,99775.91
2023-04-27T23:51:33.312Z,99794.66
2023-04-27T23:54:00.486Z,99804.09
2023-04-27T23:56:27.690Z,99799.69
2023-04-27T23:58:54.868Z,99776.38
